createdAt,value
2022-11-13T00:00:23.256Z,10.76
2022-11-13T00:03:14.964Z,10.76
2022-11-13T00:05:46.874Z,10.73
2022-11-13T00:08:19.418Z,10.71
2022-11-13T00:10:51.386Z,10.69
2022-11-13T00:13:29.051Z,10.67
2022-11-13T00:16:05.675Z,10.70
2022-11-13T00:18:39.034Z,10.76
2022-11-13T00:21:14.150Z,10.82
2022-11-13T00:23:49.098Z,10.86
2022-11-13T00:26:22.895Z,10.84
2022-11-13T00:28:57.905Z,10.80
2022-11-13T00:31:30.496Z,10.80
2022-11-13T00:36:53.756Z,10.88
2022-11-13T00:39:25.691Z,10.90
2022-11-13T00:41:57.332Z,10.86
2022-11-13T00:44:30.618Z,10.83
2022-11-13T00:47:02.295Z,10.84
2022-11-13T00:49:33.972Z,10.87
2022-11-13T00:52:08.220Z,10.91
2022-11-13T00:54:39.901Z,10.93
2022-11-13T00:57:11.588Z,10.92
2022-11-13T00:59:43.320Z,10.95
2022-11-13T01:02:15.437Z,10.98
2022-11-13T01:04:47.366Z,11.02
2022-11-13T01:07:21.023Z,11.04
2022-11-13T01:09:53.863Z,11.05
2022-11-13T01:12:27.364Z,11.03
2022-11-13T01:14:59.065Z,11.05
2022-11-13T01:17:30.719Z,11.05
2022-11-13T01:20:03.402Z,11.05
2022-11-13T01:22:35.012Z,11.00
2022-11-13T01:25:09.074Z,11.02
2022-11-13T01:27:41.143Z,11.04
2022-11-13T01:30:20.114Z,11.06
2022-11-13T01:32:52.103Z,11.09
2022-11-13T01:35:23.915Z,11.11
2022-11-13T01:37:55.547Z,11.14
2022-11-13T01:40:31.917Z,11.13
2022-11-13T01:43:21.086Z,11.15
2022-11-13T01:46:15.066Z,11.16
2022-11-13T01:48:49.134Z,11.17
2022-11-13T01:51:27.359Z,11.16
2022-11-13T01:54:04.568Z,11.16
2022-11-13T01:56:36.481Z,11.17
2022-11-13T01:59:21.261Z,11.17
2022-11-13T02:01:53.354Z,11.18
2022-11-13T02:04:25.925Z,11.18
2022-11-13T02:07:01.422Z,11.19
2022-11-13T02:09:37.114Z,11.19
2022-11-13T02:12:11.982Z,11.15
2022-11-13T02:14:47.498Z,11.10
2022-11-13T02:17:23.595Z,11.10
2022-11-13T02:19:58.430Z,11.10
2022-11-13T02:22:37.051Z,11.06
2022-11-13T02:25:11.474Z,11.08
2022-11-13T02:27:45.741Z,11.09
2022-11-13T02:30:26.853Z,11.09
2022-11-13T02:33:00.773Z,11.09
2022-11-13T02:35:36.175Z,11.11
2022-11-13T02:38:08.713Z,11.13
2022-11-13T02:40:40.466Z,11.14
2022-11-13T02:43:12.172Z,11.14
2022-11-13T02:45:44.032Z,11.13
2022-11-13T02:48:15.776Z,11.09
2022-11-13T02:50:48.040Z,11.11
2022-11-13T02:53:19.815Z,11.11
2022-11-13T02:55:51.474Z,11.11
2022-11-13T02:58:23.159Z,11.08
2022-11-13T03:00:54.831Z,11.06
2022-11-13T03:03:55.871Z,11.05
2022-11-13T03:06:18.170Z,11.07
2022-11-13T03:08:49.827Z,11.06
2022-11-13T03:11:21.772Z,11.05
2022-11-13T03:13:54.554Z,11.03
2022-11-13T03:16:26.305Z,11.04
2022-11-13T03:18:59.129Z,11.05
2022-11-13T03:21:35.785Z,11.06
2022-11-13T03:24:07.799Z,11.05
2022-11-13T03:26:42.159Z,11.06
2022-11-13T03:29:13.862Z,11.07
2022-11-13T03:31:45.493Z,11.08
2022-11-13T03:34:17.209Z,11.07
2022-11-13T03:36:48.923Z,11.06
2022-11-13T03:39:20.552Z,11.03
2022-11-13T03:41:52.237Z,11.02
2022-11-13T03:44:25.049Z,11.03
2022-11-13T03:46:56.690Z,11.03
2022-11-13T03:49:28.409Z,11.01
2022-11-13T03:52:00.113Z,10.99
2022-11-13T03:54:31.850Z,10.94
2022-11-13T03:57:03.504Z,10.91
2022-11-13T03:59:35.116Z,10.92
2022-11-13T04:02:06.882Z,10.92
2022-11-13T04:04:38.800Z,10.94
2022-11-13T04:07:10.529Z,10.93
2022-11-13T04:09:42.300Z,10.90
2022-11-13T04:12:14.054Z,10.87
2022-11-13T04:14:45.771Z,10.77
2022-11-13T04:17:17.711Z,10.70
2022-11-13T04:19:49.471Z,10.70
2022-11-13T04:22:21.140Z,10.73
2022-11-13T04:24:53.059Z,10.72
2022-11-13T04:27:26.648Z,10.70
2022-11-13T04:29:58.393Z,10.72
2022-11-13T04:32:30.163Z,10.71
2022-11-13T04:35:01.863Z,10.66
2022-11-13T04:37:33.497Z,10.59
2022-11-13T04:40:10.310Z,10.60
2022-11-13T04:42:50.781Z,10.60
2022-11-13T04:45:24.528Z,10.59
2022-11-13T04:47:56.503Z,10.60
2022-11-13T04:50:28.616Z,10.58
2022-11-13T04:53:00.286Z,10.57
2022-11-13T04:55:31.963Z,10.59
2022-11-13T04:58:03.687Z,10.61
2022-11-13T05:00:35.390Z,10.63
2022-11-13T05:03:07.046Z,10.62
2022-11-13T05:05:38.948Z,10.65
2022-11-13T05:08:10.799Z,10.68
2022-11-13T05:10:42.447Z,10.71
2022-11-13T05:13:14.114Z,10.70
2022-11-13T05:15:45.802Z,10.67
2022-11-13T05:18:17.415Z,10.66
2022-11-13T05:20:49.060Z,10.67
2022-11-13T05:23:20.936Z,10.69
2022-11-13T05:25:53.112Z,10.73
2022-11-13T05:28:27.190Z,10.73
2022-11-13T05:31:07.946Z,10.75
2022-11-13T05:33:40.503Z,10.76
2022-11-13T05:36:14.457Z,10.75
2022-11-13T05:38:46.854Z,10.73
2022-11-13T05:41:20.883Z,10.72
2022-11-13T05:43:59.024Z,10.70
2022-11-13T05:46:32.443Z,10.70
2022-11-13T05:49:04.784Z,10.70
2022-11-13T05:51:37.022Z,10.71
2022-11-13T05:54:08.744Z,10.70
2022-11-13T05:56:40.560Z,10.68
2022-11-13T05:59:12.246Z,10.71
2022-11-13T06:01:44.089Z,10.73
2022-11-13T06:04:15.733Z,10.75
2022-11-13T06:06:47.527Z,10.72
2022-11-13T06:09:19.477Z,10.70
2022-11-13T06:11:51.182Z,10.68
2022-11-13T06:14:23.037Z,10.70
2022-11-13T06:16:54.889Z,10.66
2022-11-13T06:19:26.645Z,10.67
2022-11-13T06:21:58.326Z,10.64
2022-11-13T06:24:29.953Z,10.58
2022-11-13T06:27:01.628Z,10.56
2022-11-13T06:29:33.232Z,10.57
2022-11-13T06:32:05.579Z,10.58
2022-11-13T06:34:37.343Z,10.57
2022-11-13T06:37:09.020Z,10.52
2022-11-13T06:39:40.643Z,10.48
2022-11-13T06:42:12.282Z,10.47
2022-11-13T06:44:43.983Z,10.48
2022-11-13T06:47:15.700Z,10.54
2022-11-13T06:49:47.394Z,10.58
2022-11-13T06:52:19.162Z,10.60
2022-11-13T06:54:50.863Z,10.59
2022-11-13T06:57:22.718Z,10.60
2022-11-13T06:59:54.363Z,10.60
2022-11-13T07:02:26.022Z,10.59
2022-11-13T07:04:57.701Z,10.60
2022-11-13T07:07:29.463Z,10.62
2022-11-13T07:10:01.189Z,10.64
2022-11-13T07:12:32.887Z,10.62
2022-11-13T07:15:04.684Z,10.59
2022-11-13T07:17:36.345Z,10.56
2022-11-13T07:20:12.003Z,10.52
2022-11-13T07:22:43.794Z,10.49
2022-11-13T07:25:15.468Z,10.44
2022-11-13T07:27:48.559Z,10.41
2022-11-13T07:30:26.437Z,10.39
2022-11-13T07:32:58.273Z,10.38
2022-11-13T07:35:29.953Z,10.32
2022-11-13T07:38:01.738Z,10.30
2022-11-13T07:40:33.440Z,10.31
2022-11-13T07:43:06.205Z,10.34
2022-11-13T07:45:37.870Z,10.35
2022-11-13T07:48:10.787Z,10.35
2022-11-13T07:50:43.511Z,10.34
2022-11-13T07:53:15.327Z,10.37
2022-11-13T07:55:47.366Z,10.39
2022-11-13T07:58:19.003Z,10.40
2022-11-13T08:00:50.707Z,10.45
2022-11-13T08:03:22.401Z,10.47
2022-11-13T08:05:57.284Z,10.46
2022-11-13T08:08:29.310Z,10.42
2022-11-13T08:11:03.839Z,10.40
2022-11-13T08:13:35.967Z,10.39
2022-11-13T08:16:09.104Z,10.39
2022-11-13T08:18:40.876Z,10.39
2022-11-13T08:21:15.102Z,10.35
2022-11-13T08:23:47.196Z,10.36
2022-11-13T08:26:19.467Z,10.34
2022-11-13T08:28:51.151Z,10.37
2022-11-13T08:31:23.091Z,10.39
2022-11-13T08:33:54.727Z,10.40
2022-11-13T08:36:26.405Z,10.39
2022-11-13T08:38:58.163Z,10.39
2022-11-13T08:41:29.766Z,10.39
2022-11-13T08:44:01.522Z,10.41
2022-11-13T08:46:33.426Z,10.48
2022-11-13T08:49:05.451Z,10.52
2022-11-13T08:51:37.184Z,10.53
2022-11-13T08:54:11.530Z,10.58
2022-11-13T08:56:43.271Z,10.64
2022-11-13T08:59:15.023Z,10.67
2022-11-13T09:01:49.605Z,10.70
2022-11-13T09:04:21.535Z,10.72
2022-11-13T09:06:53.407Z,10.73
2022-11-13T09:09:25.229Z,10.68
2022-11-13T09:11:56.953Z,10.62
2022-11-13T09:14:29.295Z,10.59
2022-11-13T09:17:00.969Z,10.53
2022-11-13T09:19:32.677Z,10.56
2022-11-13T09:22:04.358Z,10.62
2022-11-13T09:24:36.097Z,10.67
2022-11-13T09:27:07.813Z,10.65
2022-11-13T09:29:39.490Z,10.67
2022-11-13T09:32:11.215Z,10.69
2022-11-13T09:34:42.919Z,10.74
2022-11-13T09:37:17.098Z,10.72
2022-11-13T09:39:48.789Z,10.73
2022-11-13T09:42:23.546Z,10.69
2022-11-13T09:45:01.700Z,10.61
2022-11-13T09:47:38.249Z,10.59
2022-11-13T09:50:21.227Z,10.65
2022-11-13T09:52:53.984Z,10.62
2022-11-13T09:55:30.117Z,10.61
2022-11-13T09:58:08.294Z,10.64
2022-11-13T10:00:40.411Z,10.63
2022-11-13T10:03:59.122Z,10.62
2022-11-13T10:06:24.420Z,10.56
2022-11-13T10:09:01.507Z,10.53
2022-11-13T10:11:42.659Z,10.53
2022-11-13T10:14:17.933Z,10.52
2022-11-13T10:16:54.886Z,10.52
2022-11-13T10:19:31.431Z,10.46
2022-11-13T10:22:31.775Z,10.43
2022-11-13T10:25:12.709Z,10.39
2022-11-13T10:27:45.135Z,10.42
2022-11-13T10:30:20.436Z,10.43
2022-11-13T10:33:03.303Z,10.44
2022-11-13T10:35:49.291Z,10.41
2022-11-13T10:38:25.641Z,10.43
2022-11-13T10:41:08.006Z,10.36
2022-11-13T10:43:52.083Z,10.32
2022-11-13T10:46:25.874Z,10.31
2022-11-13T10:48:57.985Z,10.25
2022-11-13T10:51:31.721Z,10.24
2022-11-13T10:54:17.540Z,10.26
2022-11-13T10:56:59.919Z,10.25
2022-11-13T10:59:41.583Z,10.24
2022-11-13T11:02:19.785Z,10.27
2022-11-13T11:05:04.907Z,10.30
2022-11-13T11:07:42.685Z,10.27
2022-11-13T11:10:27.672Z,10.28
2022-11-13T11:13:03.956Z,10.29
2022-11-13T11:15:42.764Z,10.28
2022-11-13T11:18:26.134Z,10.31
2022-11-13T11:21:01.538Z,10.33
2022-11-13T11:23:42.456Z,10.35
2022-11-13T11:26:22.482Z,10.39
2022-11-13T11:29:02.427Z,10.35
2022-11-13T11:31:40.540Z,10.26
2022-11-13T11:34:21.689Z,10.21
2022-11-13T11:36:55.686Z,10.23
2022-11-13T11:39:34.293Z,10.28
2022-11-13T11:42:16.698Z,10.32
2022-11-13T11:45:01.419Z,10.32
2022-11-13T11:47:34.161Z,10.32
2022-11-13T11:50:13.155Z,10.36
2022-11-13T11:53:01.071Z,10.35
2022-11-13T11:55:47.087Z,10.35
2022-11-13T11:58:34.058Z,10.30
2022-11-13T12:01:17.383Z,10.26
2022-11-13T12:04:07.083Z,10.15
2022-11-13T12:06:54.087Z,10.06
2022-11-13T12:09:32.855Z,10.03
2022-11-13T12:12:12.711Z,10.05
2022-11-13T12:14:56.880Z,10.01
2022-11-13T12:17:45.171Z,9.99
2022-11-13T12:20:59.851Z,9.95
2022-11-13T12:24:07.152Z,9.93
2022-11-13T12:26:58.832Z,9.89
2022-11-13T12:29:53.717Z,9.78
2022-11-13T12:32:43.071Z,9.72
2022-11-13T12:35:37.077Z,9.73
2022-11-13T12:38:21.459Z,9.73
2022-11-13T12:40:59.945Z,9.71
2022-11-13T12:43:44.052Z,9.68
2022-11-13T12:46:16.082Z,9.63
2022-11-13T12:48:49.333Z,9.58
2022-11-13T12:51:21.486Z,9.58
2022-11-13T12:53:55.396Z,9.57
2022-11-13T12:56:42.822Z,9.46
2022-11-13T12:59:37.064Z,9.27
2022-11-13T13:02:34.649Z,9.06
2022-11-13T13:05:20.038Z,8.98
2022-11-13T13:08:09.742Z,9.05
2022-11-13T13:10:57.319Z,9.13
2022-11-13T13:13:36.813Z,9.12
2022-11-13T13:16:11.311Z,9.06
2022-11-13T13:18:43.050Z,8.91
2022-11-13T13:21:17.119Z,8.80
2022-11-13T13:23:51.071Z,8.80
2022-11-13T13:26:26.437Z,8.82
2022-11-13T13:29:03.649Z,8.82
2022-11-13T13:31:45.433Z,8.79
2022-11-13T13:34:38.428Z,8.71
2022-11-13T13:37:22.788Z,8.67
2022-11-13T13:40:03.945Z,8.65
2022-11-13T13:42:57.000Z,8.67
2022-11-13T13:45:38.242Z,8.65
2022-11-13T13:48:11.794Z,8.68
2022-11-13T13:50:47.015Z,8.70
2022-11-13T13:53:31.821Z,8.66
2022-11-13T13:56:05.639Z,8.66
2022-11-13T13:58:40.413Z,8.66
2022-11-13T14:01:26.989Z,8.61
2022-11-13T14:04:15.869Z,8.53
2022-11-13T14:06:55.090Z,8.51
2022-11-13T14:09:28.641Z,8.49
2022-11-13T14:12:07.786Z,8.48
2022-11-13T14:14:42.657Z,8.49
2022-11-13T14:17:22.779Z,8.52
2022-11-13T14:19:56.088Z,8.58
2022-11-13T14:22:28.141Z,8.59
2022-11-13T14:25:03.103Z,8.59
2022-11-13T14:27:38.670Z,8.59
2022-11-13T14:30:37.800Z,8.55
2022-11-13T14:33:16.070Z,8.58
2022-11-13T14:35:55.426Z,8.57
2022-11-13T14:38:30.501Z,8.51
2022-11-13T14:41:03.348Z,8.47
2022-11-13T14:43:35.802Z,8.50
2022-11-13T14:46:28.869Z,8.56
2022-11-13T14:49:00.782Z,8.59
2022-11-13T14:51:34.672Z,8.57
2022-11-13T14:54:09.485Z,8.61
2022-11-13T14:56:43.196Z,8.65
2022-11-13T14:59:26.142Z,8.70
2022-11-13T15:01:58.474Z,8.68
2022-11-13T15:04:30.218Z,8.68
2022-11-13T15:07:04.264Z,8.63
2022-11-13T15:09:36.971Z,8.66
2022-11-13T15:12:14.464Z,8.68
2022-11-13T15:14:46.147Z,8.61
2022-11-13T15:17:20.817Z,8.60
2022-11-13T15:19:55.281Z,8.65
2022-11-13T15:22:28.315Z,8.69
2022-11-13T15:25:00.418Z,8.67
2022-11-13T15:27:32.203Z,8.60
2022-11-13T15:30:03.912Z,8.58
2022-11-13T15:32:35.794Z,8.62
2022-11-13T15:35:12.401Z,8.55
2022-11-13T15:37:57.196Z,8.46
2022-11-13T15:40:28.842Z,8.43
2022-11-13T15:43:01.448Z,8.40
2022-11-13T15:45:43.790Z,8.45
2022-11-13T15:48:25.601Z,8.53
2022-11-13T15:50:59.032Z,8.60
2022-11-13T15:53:37.435Z,8.63
2022-11-13T15:56:28.872Z,8.65
2022-11-13T15:59:06.343Z,8.64
2022-11-13T16:01:48.028Z,8.58
2022-11-13T16:04:22.024Z,8.57
2022-11-13T16:06:54.976Z,8.59
2022-11-13T16:09:26.766Z,8.56
2022-11-13T16:12:00.420Z,8.51
2022-11-13T16:14:32.058Z,8.44
2022-11-13T16:17:04.062Z,8.39
2022-11-13T16:19:37.827Z,8.40
2022-11-13T16:22:17.862Z,8.42
2022-11-13T16:24:49.840Z,8.44
2022-11-13T16:27:28.339Z,8.43
2022-11-13T16:30:05.297Z,8.46
2022-11-13T16:32:38.444Z,8.45
2022-11-13T16:35:15.697Z,8.46
2022-11-13T16:37:47.439Z,8.45
2022-11-13T16:40:25.825Z,8.43
2022-11-13T16:42:57.777Z,8.42
2022-11-13T16:45:29.425Z,8.40
2022-11-13T16:48:01.146Z,8.35
2022-11-13T16:50:34.373Z,8.32
2022-11-13T16:53:08.308Z,8.32
2022-11-13T16:55:40.033Z,8.32
2022-11-13T16:58:14.190Z,8.32
2022-11-13T17:00:45.883Z,8.31
2022-11-13T17:03:17.479Z,8.28
2022-11-13T17:05:52.146Z,8.25
2022-11-13T17:08:24.023Z,8.21
2022-11-13T17:11:01.621Z,8.17
2022-11-13T17:13:33.386Z,8.14
2022-11-13T17:16:05.480Z,8.12
2022-11-13T17:18:39.999Z,8.16
2022-11-13T17:21:11.891Z,8.18
2022-11-13T17:23:43.763Z,8.16
2022-11-13T17:26:15.609Z,8.14
2022-11-13T17:28:50.501Z,8.08
2022-11-13T17:31:22.943Z,8.09
2022-11-13T17:33:56.131Z,8.03
2022-11-13T17:36:28.079Z,8.00
2022-11-13T17:38:59.781Z,8.00
2022-11-13T17:41:37.369Z,8.00
2022-11-13T17:44:09.410Z,7.97
2022-11-13T17:46:41.203Z,7.99
2022-11-13T17:49:12.963Z,8.03
2022-11-13T17:51:44.924Z,8.08
2022-11-13T17:54:16.607Z,8.06
2022-11-13T17:56:48.393Z,8.11
2022-11-13T17:59:19.956Z,8.17
2022-11-13T18:01:54.486Z,8.21
2022-11-13T18:04:26.580Z,8.24
2022-11-13T18:06:58.717Z,8.29
2022-11-13T18:09:30.379Z,8.29
2022-11-13T18:12:02.071Z,8.28
2022-11-13T18:14:33.865Z,8.27
2022-11-13T18:17:05.800Z,8.28
2022-11-13T18:19:37.460Z,8.28
2022-11-13T18:22:09.517Z,8.28
2022-11-13T18:24:41.318Z,8.31
2022-11-13T18:27:13.173Z,8.35
2022-11-13T18:29:45.050Z,8.35
2022-11-13T18:32:19.805Z,8.31
2022-11-13T18:34:51.397Z,8.16
2022-11-13T18:37:23.547Z,8.07
2022-11-13T18:39:56.331Z,7.99
2022-11-13T18:42:28.077Z,7.92
2022-11-13T18:45:04.681Z,7.86
2022-11-13T18:47:37.854Z,7.82
2022-11-13T18:50:12.862Z,7.80
2022-11-13T18:52:44.620Z,7.79
2022-11-13T18:55:18.651Z,7.82
2022-11-13T18:57:50.357Z,7.90
2022-11-13T19:00:24.209Z,7.98
2022-11-13T19:03:00.446Z,8.06
2022-11-13T19:05:32.113Z,8.09
2022-11-13T19:08:03.979Z,8.00
2022-11-13T19:10:37.479Z,7.98
2022-11-13T19:13:09.681Z,7.99
2022-11-13T19:15:41.687Z,8.02
2022-11-13T19:18:13.412Z,8.05
2022-11-13T19:20:45.068Z,8.01
2022-11-13T19:23:16.936Z,7.95
2022-11-13T19:25:50.556Z,7.90
2022-11-13T19:28:22.330Z,7.84
2022-11-13T19:30:55.454Z,7.79
2022-11-13T19:33:29.778Z,7.78
2022-11-13T19:36:06.368Z,7.81
2022-11-13T19:38:38.415Z,7.84
2022-11-13T19:41:11.042Z,7.83
2022-11-13T19:43:45.043Z,7.90
2022-11-13T19:46:18.560Z,7.96
2022-11-13T19:48:51.117Z,7.98
2022-11-13T19:51:24.703Z,8.04
2022-11-13T19:53:57.950Z,8.07
2022-11-13T19:56:30.284Z,8.08
2022-11-13T19:59:01.902Z,8.11
2022-11-13T20:01:34.071Z,8.10
2022-11-13T20:04:06.693Z,8.04
2022-11-13T20:06:40.820Z,8.00
2022-11-13T20:09:12.622Z,8.01
2022-11-13T20:11:48.559Z,8.05
2022-11-13T20:14:20.350Z,8.07
2022-11-13T20:16:53.335Z,8.07
2022-11-13T20:19:25.611Z,7.92
2022-11-13T20:21:57.729Z,7.81
2022-11-13T20:24:33.514Z,7.78
2022-11-13T20:27:08.337Z,7.72
2022-11-13T20:29:40.088Z,7.73
2022-11-13T20:32:12.516Z,7.73
2022-11-13T20:34:44.228Z,7.74
2022-11-13T20:37:16.251Z,7.71
2022-11-13T20:39:48.059Z,7.66
2022-11-13T20:42:19.795Z,7.61
2022-11-13T20:44:58.529Z,7.64
2022-11-13T20:47:31.152Z,7.57
2022-11-13T20:50:02.863Z,7.49
2022-11-13T20:52:34.586Z,7.44
2022-11-13T20:55:07.164Z,7.41
2022-11-13T20:57:41.060Z,7.43
2022-11-13T21:00:18.398Z,7.37
2022-11-13T21:02:50.061Z,7.32
2022-11-13T21:05:21.777Z,7.29
2022-11-13T21:07:55.597Z,7.28
2022-11-13T21:10:29.330Z,7.28
2022-11-13T21:13:00.917Z,7.25
2022-11-13T21:15:33.984Z,7.20
2022-11-13T21:18:14.953Z,7.15
2022-11-13T21:20:47.607Z,7.11
2022-11-13T21:23:20.547Z,7.13
2022-11-13T21:26:01.208Z,7.12
2022-11-13T21:28:33.924Z,7.11
2022-11-13T21:31:07.439Z,7.09
2022-11-13T21:33:43.673Z,7.07
2022-11-13T21:36:17.689Z,7.05
2022-11-13T21:38:55.111Z,7.04
2022-11-13T21:41:30.083Z,7.06
2022-11-13T21:44:03.383Z,7.11
2022-11-13T21:46:36.681Z,7.08
2022-11-13T21:49:10.669Z,6.98
2022-11-13T21:51:43.720Z,6.94
2022-11-13T21:54:15.547Z,6.92
2022-11-13T21:56:47.297Z,6.88
2022-11-13T21:59:18.956Z,6.83
2022-11-13T22:01:50.754Z,6.81
2022-11-13T22:04:22.459Z,6.81
2022-11-13T22:06:54.966Z,6.78
2022-11-13T22:09:30.003Z,6.72
2022-11-13T22:12:01.987Z,6.68
2022-11-13T22:14:36.691Z,6.67
2022-11-13T22:17:08.398Z,6.68
2022-11-13T22:19:40.113Z,6.70
2022-11-13T22:22:11.858Z,6.66
2022-11-13T22:24:43.567Z,6.63
2022-11-13T22:27:15.311Z,6.60
2022-11-13T22:29:47.420Z,6.60
2022-11-13T22:32:21.307Z,6.55
2022-11-13T22:34:53.024Z,6.50
2022-11-13T22:37:25.991Z,6.46
2022-11-13T22:40:00.512Z,6.42
2022-11-13T22:42:32.243Z,6.44
2022-11-13T22:45:22.468Z,6.46
2022-11-13T22:47:53.731Z,6.45
2022-11-13T22:50:25.466Z,6.42
2022-11-13T22:53:02.372Z,6.41
2022-11-13T22:55:34.055Z,6.45
2022-11-13T22:58:05.873Z,6.50
2022-11-13T23:00:37.535Z,6.50
2022-11-13T23:03:10.914Z,6.49
2022-11-13T23:05:43.893Z,6.48
2022-11-13T23:08:15.632Z,6.46
2022-11-13T23:10:54.706Z,6.46
2022-11-13T23:13:26.587Z,6.49
2022-11-13T23:15:58.262Z,6.46
2022-11-13T23:18:35.607Z,6.43
2022-11-13T23:21:08.067Z,6.44
2022-11-13T23:23:40.139Z,6.49
2022-11-13T23:26:13.809Z,6.51
2022-11-13T23:28:45.690Z,6.52
2022-11-13T23:31:17.621Z,6.53
2022-11-13T23:33:49.620Z,6.54
2022-11-13T23:36:21.295Z,6.54
2022-11-13T23:38:53.615Z,6.53
2022-11-13T23:41:29.551Z,6.50
2022-11-13T23:44:08.772Z,6.47
2022-11-13T23:46:40.676Z,6.47
2022-11-13T23:49:12.347Z,6.49
2022-11-13T23:51:44.210Z,6.50
2022-11-13T23:54:16.007Z,6.48
2022-11-13T23:56:47.684Z,6.48
2022-11-13T23:59:19.362Z,6.48
